createdAt,value
2017-07-30T00:00:06.811Z,91.06
2017-07-30T00:00:47.711Z,91.31
2017-07-30T00:01:28.599Z,91.02
2017-07-30T00:02:09.494Z,90.44
2017-07-30T00:02:50.389Z,90.73
2017-07-30T00:03:31.281Z,91.41
2017-07-30T00:04:12.186Z,91.21
2017-07-30T00:04:53.083Z,91.21
2017-07-30T00:05:33.993Z,91.02
2017-07-30T00:06:14.893Z,91.31
2017-07-30T00:06:55.789Z,91.12
2017-07-30T00:07:36.684Z,91.41
2017-07-30T00:08:17.575Z,91.21
2017-07-30T00:08:58.468Z,91.69
2017-07-30T00:09:39.364Z,91.89
2017-07-30T00:10:20.256Z,91.69
2017-07-30T00:11:01.155Z,91.69
2017-07-30T00:11:42.047Z,91.5
2017-07-30T00:12:22.934Z,91.5
2017-07-30T00:13:03.830Z,91.69
2017-07-30T00:13:44.728Z,91.6
2017-07-30T00:14:25.616Z,91.89
2017-07-30T00:15:06.522Z,91.69
2017-07-30T00:15:47.415Z,91.31
2017-07-30T00:16:28.310Z,91.6
2017-07-30T00:17:09.199Z,91.89
2017-07-30T00:17:50.099Z,91.99
2017-07-30T00:18:30.992Z,91.79
2017-07-30T00:19:11.891Z,91.89
2017-07-30T00:19:52.782Z,91.79
2017-07-30T00:20:33.676Z,91.5
2017-07-30T00:21:14.570Z,91.69
2017-07-30T00:21:55.460Z,91.6
2017-07-30T00:22:36.370Z,91.5
2017-07-30T00:23:17.271Z,92.27
2017-07-30T00:23:58.156Z,92.08
2017-07-30T00:24:39.058Z,92.47
2017-07-30T00:25:19.945Z,92.08
2017-07-30T00:26:00.835Z,92.18
2017-07-30T00:26:41.747Z,92.27
2017-07-30T00:27:22.650Z,92.47
2017-07-30T00:28:03.539Z,92.66
2017-07-30T00:28:44.438Z,91.79
2017-07-30T00:29:25.322Z,92.47
2017-07-30T00:30:06.211Z,92.18
2017-07-30T00:30:47.110Z,92.13
2017-07-30T00:31:28.001Z,92.08
2017-07-30T00:32:08.900Z,91.69
2017-07-30T00:32:49.789Z,91.69
2017-07-30T00:33:30.683Z,91.75
2017-07-30T00:34:11.586Z,91.99
2017-07-30T00:34:52.473Z,92.37
2017-07-30T00:35:33.371Z,92.22
2017-07-30T00:36:14.266Z,92.08
2017-07-30T00:36:55.148Z,93
2017-07-30T00:37:36.035Z,92.94
2017-07-30T00:38:16.940Z,92.61
2017-07-30T00:38:57.825Z,92.18
2017-07-30T00:39:38.735Z,92.32
2017-07-30T00:40:19.621Z,93
2017-07-30T00:41:00.510Z,93
2017-07-30T00:41:41.411Z,92.76
2017-07-30T00:42:22.319Z,92.66
2017-07-30T00:43:03.209Z,92.47
2017-07-30T00:43:44.112Z,92.13
2017-07-30T00:44:25.013Z,92.32
2017-07-30T00:45:05.930Z,92.22
2017-07-30T00:45:46.818Z,92.22
2017-07-30T00:46:27.721Z,92.37
2017-07-30T00:47:08.624Z,92.13
2017-07-30T00:47:49.514Z,92.61
2017-07-30T00:48:30.412Z,92.42
2017-07-30T00:49:11.303Z,92.42
2017-07-30T00:49:52.187Z,92.32
2017-07-30T00:50:33.098Z,92.47
2017-07-30T00:51:13.991Z,92.37
2017-07-30T00:51:54.890Z,92.18
2017-07-30T00:52:35.790Z,92.52
2017-07-30T00:53:16.686Z,92.61
2017-07-30T00:55:35.622Z,92.9
2017-07-30T00:56:16.525Z,92.9
2017-07-30T00:56:57.429Z,92.8
2017-07-30T00:57:38.322Z,92.9
2017-07-30T00:58:19.223Z,92.61
2017-07-30T00:59:00.107Z,92.9
2017-07-30T00:59:41.033Z,92.8
2017-07-30T01:00:21.927Z,92.61
2017-07-30T01:01:02.825Z,92.42
2017-07-30T01:01:43.718Z,92.8
2017-07-30T01:02:24.604Z,93.19
2017-07-30T01:03:05.510Z,92.9
2017-07-30T01:03:46.410Z,93.19
2017-07-30T01:04:27.310Z,92.8
2017-07-30T01:05:08.207Z,92.71
2017-07-30T01:05:49.092Z,93
2017-07-30T01:06:29.985Z,93.19
2017-07-30T01:07:10.890Z,93
2017-07-30T01:07:51.776Z,93
2017-07-30T01:08:32.674Z,93.67
2017-07-30T01:09:13.566Z,93.19
2017-07-30T01:09:54.446Z,93.38
2017-07-30T01:10:35.354Z,92.8
2017-07-30T01:11:16.244Z,93.29
2017-07-30T01:11:57.138Z,93
2017-07-30T01:12:38.033Z,93.29
2017-07-30T01:13:18.925Z,93.19
2017-07-30T01:13:59.821Z,92.8
2017-07-30T01:14:40.717Z,92.71
2017-07-30T01:15:21.607Z,93.09
2017-07-30T01:16:02.507Z,93.29
2017-07-30T01:16:43.399Z,93.19
2017-07-30T01:17:24.292Z,92.8
2017-07-30T01:18:05.183Z,92.8
2017-07-30T01:18:46.086Z,92.71
2017-07-30T01:19:26.978Z,92.8
2017-07-30T01:20:07.873Z,93.29
2017-07-30T01:20:48.761Z,92.8
2017-07-30T01:21:29.651Z,93.38
2017-07-30T01:22:10.551Z,92.8
2017-07-30T01:22:51.439Z,93.29
2017-07-30T01:23:32.328Z,93.38
2017-07-30T01:24:13.230Z,93.24
2017-07-30T01:24:54.111Z,93.05
2017-07-30T01:25:34.997Z,93.29
2017-07-30T01:26:15.885Z,93.24
2017-07-30T01:26:56.786Z,93.38
2017-07-30T01:27:37.672Z,93.48
2017-07-30T01:28:18.561Z,93.57
2017-07-30T01:28:59.463Z,93.72
2017-07-30T01:29:40.354Z,93.96
2017-07-30T01:30:21.236Z,93.87
2017-07-30T01:31:02.140Z,93.48
2017-07-30T01:31:43.022Z,93.48
2017-07-30T01:32:23.916Z,93
2017-07-30T01:33:04.813Z,93.29
2017-07-30T01:33:45.710Z,93.38
2017-07-30T01:34:26.616Z,93.09
2017-07-30T01:35:07.498Z,92.61
2017-07-30T01:35:48.391Z,92.8
2017-07-30T01:36:29.299Z,93.38
2017-07-30T01:37:10.188Z,93.19
2017-07-30T01:37:51.085Z,92.71
2017-07-30T01:38:32.001Z,93
2017-07-30T01:39:12.887Z,92.9
2017-07-30T01:39:53.778Z,93.19
2017-07-30T01:40:34.677Z,92.9
2017-07-30T01:41:15.567Z,92.71
2017-07-30T01:41:56.472Z,92.8
2017-07-30T01:42:37.344Z,92.9
2017-07-30T01:43:18.221Z,93
2017-07-30T01:43:59.129Z,93.19
2017-07-30T01:44:40.028Z,92.9
2017-07-30T01:45:20.918Z,92.71
2017-07-30T01:46:01.815Z,93.48
2017-07-30T01:46:42.704Z,93.38
2017-07-30T01:47:23.594Z,93.38
2017-07-30T01:48:04.492Z,93.19
2017-07-30T01:48:45.384Z,93.38
2017-07-30T01:49:26.284Z,92.8
2017-07-30T01:50:07.179Z,93.38
2017-07-30T01:50:48.081Z,93.09
2017-07-30T01:51:28.976Z,92.9
2017-07-30T01:52:09.877Z,93.38
2017-07-30T01:52:50.763Z,92.9
2017-07-30T01:53:31.661Z,92.8
2017-07-30T01:54:12.551Z,93.19
2017-07-30T01:54:53.435Z,92.61
2017-07-30T01:55:34.330Z,92.9
2017-07-30T01:56:15.222Z,92.9
2017-07-30T01:56:56.110Z,92.8
2017-07-30T01:57:37.003Z,92.61
2017-07-30T01:58:17.904Z,92.61
2017-07-30T01:58:58.795Z,93.19
2017-07-30T01:59:39.696Z,92.9
2017-07-30T02:00:20.586Z,92.8
2017-07-30T02:01:01.488Z,93
2017-07-30T02:01:42.377Z,92.9
2017-07-30T02:02:23.259Z,92.94
2017-07-30T02:03:04.173Z,93.19
2017-07-30T02:03:45.059Z,93.29
2017-07-30T02:04:25.952Z,93.24
2017-07-30T02:05:06.845Z,93.19
2017-07-30T02:05:47.733Z,92.8
2017-07-30T02:06:28.627Z,93.14
2017-07-30T02:07:09.529Z,92.71
2017-07-30T02:07:50.414Z,93
2017-07-30T02:08:31.306Z,92.66
2017-07-30T02:09:12.208Z,92.9
2017-07-30T02:09:53.097Z,92.8
2017-07-30T02:10:33.978Z,93.19
2017-07-30T02:11:14.867Z,92.8
2017-07-30T02:11:55.753Z,92.8
2017-07-30T02:12:36.638Z,93.09
2017-07-30T02:13:17.542Z,92.9
2017-07-30T02:13:58.427Z,93.09
2017-07-30T02:14:39.309Z,92.9
2017-07-30T02:15:20.193Z,93.19
2017-07-30T02:16:01.080Z,93.38
2017-07-30T02:16:41.967Z,93.38
2017-07-30T02:17:22.853Z,93.38
2017-07-30T02:18:03.733Z,93
2017-07-30T02:18:44.638Z,93.96
2017-07-30T02:19:25.521Z,92.9
2017-07-30T02:20:06.444Z,93.82
2017-07-30T02:20:47.337Z,93.67
2017-07-30T02:21:28.216Z,93.57
2017-07-30T02:22:09.109Z,93.82
2017-07-30T02:22:49.998Z,93.67
2017-07-30T02:23:30.896Z,93.72
2017-07-30T02:24:11.783Z,93.57
2017-07-30T02:24:52.707Z,93.48
2017-07-30T02:25:33.599Z,93.72
2017-07-30T02:26:14.488Z,93.72
2017-07-30T02:26:55.374Z,93.53
2017-07-30T02:27:36.278Z,93.33
2017-07-30T02:28:17.163Z,93.91
2017-07-30T02:28:58.059Z,93.91
2017-07-30T02:29:38.967Z,94.3
2017-07-30T02:30:21.356Z,93.62
2017-07-30T02:31:02.270Z,93.62
2017-07-30T02:31:43.166Z,93.43
2017-07-30T02:32:24.059Z,93.82
2017-07-30T02:33:04.948Z,93.62
2017-07-30T02:33:45.845Z,93.43
2017-07-30T02:34:26.737Z,93.82
2017-07-30T02:35:07.626Z,94.3
2017-07-30T02:35:48.516Z,94.1
2017-07-30T02:36:29.410Z,94.3
2017-07-30T02:37:10.300Z,94.01
2017-07-30T02:37:51.209Z,94.2
2017-07-30T02:38:32.103Z,93.82
2017-07-30T02:39:12.986Z,94.01
2017-07-30T02:39:53.887Z,93.82
2017-07-30T02:40:34.768Z,93.72
2017-07-30T02:41:15.662Z,93.68
2017-07-30T02:41:56.554Z,94.01
2017-07-30T02:42:37.449Z,93.91
2017-07-30T02:43:18.334Z,94.1
2017-07-30T02:43:59.230Z,94.01
2017-07-30T02:44:40.121Z,94.4
2017-07-30T02:45:21.008Z,93.91
2017-07-30T02:46:01.904Z,94.1
2017-07-30T02:46:42.806Z,94.49
2017-07-30T02:47:23.699Z,94.4
2017-07-30T02:48:04.595Z,94.2
2017-07-30T02:48:45.500Z,94.06
2017-07-30T02:49:26.395Z,93.82
2017-07-30T02:50:07.289Z,94.15
2017-07-30T02:50:48.182Z,94.06
2017-07-30T02:51:29.074Z,94.06
2017-07-30T02:52:09.972Z,94.35
2017-07-30T02:52:50.858Z,94.15
2017-07-30T02:53:31.753Z,93.96
2017-07-30T02:54:12.648Z,94.15
2017-07-30T02:54:53.534Z,94.25
2017-07-30T02:55:34.438Z,94.06
2017-07-30T02:56:15.329Z,94.06
2017-07-30T02:56:56.228Z,94.2
2017-07-30T02:57:37.146Z,93.82
2017-07-30T02:58:18.015Z,93.96
2017-07-30T02:58:58.912Z,94.06
2017-07-30T02:59:39.811Z,94.1
2017-07-30T03:00:20.699Z,94.15
2017-07-30T03:01:01.584Z,93.96
2017-07-30T03:01:42.478Z,93.87
2017-07-30T03:02:23.368Z,94.06
2017-07-30T03:03:04.259Z,94.06
2017-07-30T03:03:45.153Z,94.06
2017-07-30T03:04:26.047Z,94.35
2017-07-30T03:05:06.945Z,94.83
2017-07-30T03:05:47.859Z,94.64
2017-07-30T03:06:28.728Z,94.92
2017-07-30T03:07:09.621Z,94.15
2017-07-30T03:07:50.519Z,94.92
2017-07-30T03:08:31.410Z,94.15
2017-07-30T03:09:12.309Z,94.73
2017-07-30T03:09:53.196Z,94.35
2017-07-30T03:10:34.087Z,94.83
2017-07-30T03:11:15.005Z,94.73
2017-07-30T03:11:55.876Z,94.64
2017-07-30T03:12:36.770Z,94.64
2017-07-30T03:13:17.662Z,94.83
2017-07-30T03:13:58.557Z,94.73
2017-07-30T03:14:39.453Z,94.73
2017-07-30T03:15:20.349Z,94.83
2017-07-30T03:16:01.236Z,94.92
2017-07-30T03:16:42.137Z,94.54
2017-07-30T03:17:23.026Z,94.64
2017-07-30T03:18:03.928Z,94.64
2017-07-30T03:18:44.830Z,94.64
2017-07-30T03:19:25.713Z,94.45
2017-07-30T03:20:06.605Z,94.54
2017-07-30T03:20:47.500Z,94.35
2017-07-30T03:21:28.393Z,94.15
2017-07-30T03:22:09.284Z,94.83
2017-07-30T03:22:50.181Z,94.25
2017-07-30T03:23:31.068Z,94.92
2017-07-30T03:24:11.959Z,94.92
2017-07-30T03:24:52.849Z,94.83
2017-07-30T03:25:33.741Z,94.25
2017-07-30T03:26:14.637Z,94.73
2017-07-30T03:26:55.521Z,94.54
2017-07-30T03:27:36.412Z,94.45
2017-07-30T03:28:17.300Z,94.83
2017-07-30T03:28:58.198Z,94.64
2017-07-30T03:29:39.090Z,94.73
2017-07-30T03:30:19.981Z,94.73
2017-07-30T03:31:00.891Z,94.73
2017-07-30T03:31:41.785Z,94.83
2017-07-30T03:32:22.679Z,94.73
2017-07-30T03:33:03.580Z,94.73
2017-07-30T03:33:44.468Z,94.64
2017-07-30T03:34:25.360Z,94.73
2017-07-30T03:35:06.240Z,94.64
2017-07-30T03:35:47.137Z,94.25
2017-07-30T03:36:28.030Z,94.64
2017-07-30T03:37:08.920Z,94.73
2017-07-30T03:37:49.805Z,94.25
2017-07-30T03:38:30.687Z,93.87
2017-07-30T03:39:11.584Z,93.77
2017-07-30T03:39:52.469Z,93.87
2017-07-30T03:40:33.366Z,94.92
2017-07-30T03:41:14.257Z,93.87
2017-07-30T03:41:55.148Z,94.73
2017-07-30T03:42:36.052Z,94.15
2017-07-30T03:43:16.939Z,93.87
2017-07-30T03:43:57.831Z,94.06
2017-07-30T03:44:38.725Z,93.96
2017-07-30T03:45:19.618Z,94.35
2017-07-30T03:46:00.518Z,94.15
2017-07-30T03:46:41.407Z,94.45
2017-07-30T03:47:22.297Z,93.96
2017-07-30T03:48:03.194Z,94.06
2017-07-30T03:48:44.093Z,94.15
2017-07-30T03:49:24.979Z,94.25
2017-07-30T03:50:05.866Z,93.87
2017-07-30T03:50:46.761Z,94.92
2017-07-30T03:51:27.654Z,94.64
2017-07-30T03:52:08.546Z,94.73
2017-07-30T03:52:49.436Z,94.15
2017-07-30T03:53:30.340Z,94.15
2017-07-30T03:54:11.219Z,94.15
2017-07-30T03:54:52.115Z,94.3
2017-07-30T03:55:33.008Z,93.96
2017-07-30T03:56:13.901Z,94.06
2017-07-30T03:56:54.795Z,93.96
2017-07-30T03:57:35.689Z,94.06
2017-07-30T03:58:16.580Z,94.06
2017-07-30T03:58:57.500Z,93.96
2017-07-30T03:59:38.389Z,94.25
2017-07-30T04:00:19.291Z,94.25
2017-07-30T04:01:00.184Z,94.15
2017-07-30T04:01:41.079Z,94.25
2017-07-30T04:02:21.974Z,94.35
2017-07-30T04:03:02.863Z,94.06
2017-07-30T04:03:43.748Z,93.96
2017-07-30T04:04:24.643Z,94.06
2017-07-30T04:05:05.539Z,94.01
2017-07-30T04:05:46.425Z,93.91
2017-07-30T04:06:27.307Z,94.01
2017-07-30T04:07:08.203Z,93.96
2017-07-30T04:07:49.090Z,94.2
2017-07-30T04:08:29.981Z,94.2
2017-07-30T04:09:10.890Z,94.1
2017-07-30T04:09:51.766Z,93.91
2017-07-30T04:10:32.679Z,93.91
2017-07-30T04:11:13.568Z,94.01
2017-07-30T04:11:54.517Z,94.1
2017-07-30T04:12:35.416Z,94.01
2017-07-30T04:13:16.288Z,94.06
2017-07-30T04:13:57.177Z,93.87
2017-07-30T04:14:38.077Z,93.68
2017-07-30T04:16:06.223Z,94.35
2017-07-30T04:16:47.098Z,93.87
2017-07-30T04:17:27.991Z,93.96
2017-07-30T04:18:08.873Z,93.87
2017-07-30T04:18:49.775Z,94.06
2017-07-30T04:19:30.664Z,94.06
2017-07-30T04:20:11.556Z,93.96
2017-07-30T04:20:52.452Z,93.96
2017-07-30T04:21:33.366Z,94.01
2017-07-30T04:22:14.223Z,94.35
2017-07-30T04:22:55.113Z,94.2
2017-07-30T04:23:36.007Z,94.35
2017-07-30T04:24:16.891Z,94.06
2017-07-30T04:24:57.778Z,93.87
2017-07-30T04:25:38.672Z,94.25
2017-07-30T04:26:19.576Z,93.96
2017-07-30T04:27:00.464Z,94.01
2017-07-30T04:27:41.350Z,93.72
2017-07-30T04:28:22.298Z,94.01
2017-07-30T04:29:03.157Z,94.2
2017-07-30T04:29:44.042Z,94.1
2017-07-30T04:30:24.954Z,94.2
2017-07-30T04:31:05.836Z,94.1
2017-07-30T04:31:46.722Z,94.3
2017-07-30T04:32:27.630Z,94.1
2017-07-30T04:33:08.526Z,94.1
2017-07-30T04:33:49.403Z,94.01
2017-07-30T04:34:30.308Z,94.1
2017-07-30T04:35:11.190Z,93.91
2017-07-30T04:35:52.076Z,94.2
2017-07-30T04:36:32.985Z,93.91
2017-07-30T04:37:13.865Z,93.67
2017-07-30T04:37:54.762Z,93.62
2017-07-30T04:38:35.659Z,93.62
2017-07-30T04:39:16.541Z,93.62
2017-07-30T04:39:57.414Z,93.62
2017-07-30T04:40:38.321Z,94.3
2017-07-30T04:41:19.253Z,93.53
2017-07-30T04:42:00.133Z,93.72
2017-07-30T04:42:41.028Z,94.2
2017-07-30T04:43:21.923Z,94.2
2017-07-30T04:44:02.807Z,94.2
2017-07-30T04:44:43.721Z,93.91
2017-07-30T04:45:24.624Z,94.01
2017-07-30T04:46:05.521Z,94.01
2017-07-30T04:46:46.420Z,94.2
2017-07-30T04:47:27.309Z,93.53
2017-07-30T04:48:08.199Z,93.62
2017-07-30T04:48:49.094Z,93.43
2017-07-30T04:49:30.005Z,93.43
2017-07-30T04:50:10.877Z,93.72
2017-07-30T04:50:51.800Z,93.82
2017-07-30T04:51:32.688Z,93.72
2017-07-30T04:52:13.573Z,93.33
2017-07-30T04:52:54.462Z,93.91
2017-07-30T04:53:35.394Z,93.96
2017-07-30T04:54:16.282Z,93.62
2017-07-30T04:54:57.174Z,93.82
2017-07-30T04:55:38.061Z,93.53
2017-07-30T04:56:18.970Z,93.87
2017-07-30T04:56:59.844Z,93.67
2017-07-30T04:57:40.727Z,93.72
2017-07-30T04:58:21.615Z,93.62
2017-07-30T04:59:02.517Z,93.53
2017-07-30T04:59:43.407Z,93.62
2017-07-30T05:00:24.323Z,93.62
2017-07-30T05:01:06.045Z,93.72
2017-07-30T05:01:46.972Z,93.53
2017-07-30T05:02:27.858Z,93.77
2017-07-30T05:03:08.748Z,93.67
2017-07-30T05:03:49.658Z,93.87
2017-07-30T05:04:30.537Z,93.48
2017-07-30T05:05:11.425Z,93.67
2017-07-30T05:05:52.318Z,93.38
2017-07-30T05:06:33.214Z,93.19
2017-07-30T05:07:14.105Z,93.38
2017-07-30T05:07:55.002Z,93.67
2017-07-30T05:08:35.890Z,93.67
2017-07-30T05:09:16.781Z,93.19
2017-07-30T05:09:57.680Z,93.09
2017-07-30T05:10:38.564Z,93.19
2017-07-30T05:11:19.466Z,93
2017-07-30T05:12:00.333Z,92.8
2017-07-30T05:12:41.221Z,93.57
2017-07-30T05:13:22.120Z,93.19
2017-07-30T05:14:03.016Z,93.19
2017-07-30T05:14:43.899Z,92.9
2017-07-30T05:15:24.790Z,92.71
2017-07-30T05:16:05.690Z,92.85
2017-07-30T05:16:46.576Z,92.71
2017-07-30T05:17:27.479Z,93.24
2017-07-30T05:18:08.362Z,93.14
2017-07-30T05:18:49.248Z,93.24
2017-07-30T05:19:30.137Z,93.24
2017-07-30T05:20:11.023Z,92.76
2017-07-30T05:20:51.917Z,93.04
2017-07-30T05:21:32.809Z,93.04
2017-07-30T05:22:13.701Z,92.85
2017-07-30T05:22:54.594Z,92.56
2017-07-30T05:23:35.493Z,92.18
2017-07-30T05:24:16.374Z,92.27
2017-07-30T05:24:57.270Z,91.99
2017-07-30T05:25:38.165Z,91.79
2017-07-30T05:26:19.068Z,92.13
2017-07-30T05:26:59.959Z,91.64
2017-07-30T05:27:40.849Z,92.22
2017-07-30T05:28:21.748Z,91.64
2017-07-30T05:29:02.637Z,92.03
2017-07-30T05:29:43.532Z,92.22
2017-07-30T05:30:24.419Z,91.64
2017-07-30T05:31:05.304Z,91.83
2017-07-30T05:31:46.195Z,91.55
2017-07-30T05:32:27.090Z,91.36
2017-07-30T05:33:07.986Z,91.36
2017-07-30T05:33:48.890Z,90.97
2017-07-30T05:34:29.769Z,90.92
2017-07-30T05:35:10.658Z,91.2
2017-07-30T05:35:51.548Z,91.11
2017-07-30T05:36:32.446Z,91.02
2017-07-30T05:37:13.351Z,91.11
2017-07-30T05:37:54.249Z,90.72
2017-07-30T05:38:35.152Z,90.82
2017-07-30T05:39:16.041Z,90.92
2017-07-30T05:39:57.045Z,90.63
2017-07-30T05:40:37.937Z,90.44
2017-07-30T05:41:18.842Z,90.05
2017-07-30T05:41:59.718Z,90.34
2017-07-30T05:42:40.609Z,90.05
2017-07-30T05:43:21.514Z,90.44
2017-07-30T05:44:02.395Z,90.48
2017-07-30T05:44:43.285Z,90.44
2017-07-30T05:45:24.248Z,90.58
2017-07-30T05:46:05.157Z,90.19
2017-07-30T05:46:46.222Z,89.9
2017-07-30T05:47:27.329Z,90.09
2017-07-30T05:48:08.217Z,89.9
2017-07-30T05:48:49.112Z,90.09
2017-07-30T05:49:30.004Z,89.9
2017-07-30T05:50:10.910Z,89.32
2017-07-30T05:50:51.789Z,89.32
2017-07-30T05:51:32.677Z,89.17
2017-07-30T05:52:13.565Z,89.32
2017-07-30T05:52:54.453Z,89.37
2017-07-30T05:53:35.405Z,89.17
2017-07-30T05:54:16.313Z,88.79
2017-07-30T05:54:57.209Z,88.59
2017-07-30T05:55:38.106Z,88.69
2017-07-30T05:56:19.003Z,88.59
2017-07-30T05:56:59.894Z,89.07
2017-07-30T05:57:40.782Z,88.5
2017-07-30T05:58:21.681Z,88.69
2017-07-30T05:59:02.575Z,88.69
2017-07-30T05:59:43.471Z,88.4
2017-07-30T06:00:24.361Z,88.06
2017-07-30T06:01:05.255Z,88.25
2017-07-30T06:01:46.137Z,88.25
2017-07-30T06:02:27.038Z,87.77
2017-07-30T06:03:07.930Z,88.35
2017-07-30T06:03:48.821Z,87.48
2017-07-30T06:04:29.718Z,88.45
2017-07-30T06:05:10.608Z,88.45
2017-07-30T06:05:51.510Z,88.45
2017-07-30T06:06:32.398Z,87.77
2017-07-30T06:07:13.297Z,87.67
2017-07-30T06:07:54.185Z,87.58
2017-07-30T06:08:35.076Z,87.33
2017-07-30T06:09:15.961Z,87.52
2017-07-30T06:09:56.860Z,87.33
2017-07-30T06:10:37.756Z,86.75
2017-07-30T06:11:18.648Z,86.75
2017-07-30T06:11:59.524Z,86.46
2017-07-30T06:12:40.420Z,86.07
2017-07-30T06:13:21.320Z,86.46
2017-07-30T06:14:02.200Z,85.88
2017-07-30T06:14:43.104Z,86.46
2017-07-30T06:15:23.998Z,86.56
2017-07-30T06:16:04.924Z,86.11
2017-07-30T06:16:45.792Z,86.41
2017-07-30T06:17:26.741Z,86.31
2017-07-30T06:18:07.605Z,85.73
2017-07-30T06:18:48.501Z,85.63
2017-07-30T06:19:29.397Z,85.63
2017-07-30T06:20:10.296Z,85.53
2017-07-30T06:20:51.191Z,85.53
2017-07-30T06:21:32.092Z,85.44
2017-07-30T06:22:12.989Z,85.25
2017-07-30T06:22:53.889Z,84.77
2017-07-30T06:23:34.785Z,84.8
2017-07-30T06:24:15.679Z,84.42
2017-07-30T06:24:56.582Z,84.22
2017-07-30T06:25:37.482Z,84.13
2017-07-30T06:26:18.375Z,84.8
2017-07-30T06:26:59.271Z,84.03
2017-07-30T06:27:40.169Z,84.08
2017-07-30T06:28:21.058Z,83.94
2017-07-30T06:29:01.961Z,83.78
2017-07-30T06:29:42.880Z,83.88
2017-07-30T06:30:23.747Z,83.78
2017-07-30T06:31:04.651Z,84.08
2017-07-30T06:31:45.554Z,82.91
2017-07-30T06:32:26.446Z,83.4
2017-07-30T06:33:07.346Z,82.95
2017-07-30T06:33:48.242Z,82.47
2017-07-30T06:34:29.131Z,82.37
2017-07-30T06:35:10.042Z,81.6
2017-07-30T06:35:50.926Z,81.25
2017-07-30T06:36:31.814Z,80.42
2017-07-30T06:37:12.690Z,79.1
2017-07-30T06:37:53.598Z,77.49
2017-07-30T06:38:34.473Z,75.88
2017-07-30T06:39:15.343Z,74.46
2017-07-30T06:39:56.202Z,73.33
2017-07-30T06:40:37.071Z,72.33
2017-07-30T06:41:17.971Z,70.1
2017-07-30T06:41:58.861Z,67.9
2017-07-30T06:42:39.728Z,66.08
2017-07-30T06:43:20.606Z,65.69
2017-07-30T06:44:01.517Z,64.62
2017-07-30T06:44:42.383Z,64.94
2017-07-30T06:45:23.274Z,63.42
2017-07-30T06:46:04.173Z,62.15
2017-07-30T06:46:45.140Z,61.99
2017-07-30T06:47:26.103Z,60.62
2017-07-30T06:48:07.016Z,60.16
2017-07-30T06:48:47.868Z,59.87
2017-07-30T06:49:28.741Z,59.77
2017-07-30T06:50:09.629Z,59.7
2017-07-30T06:50:50.519Z,58.63
2017-07-30T06:52:28.992Z,57.39
2017-07-30T06:53:09.885Z,57.17
2017-07-30T06:53:50.818Z,57.17
2017-07-30T06:54:31.698Z,57.07
2017-07-30T06:55:12.571Z,56.68
2017-07-30T06:55:53.490Z,56.68
2017-07-30T06:56:34.379Z,57.17
2017-07-30T06:57:15.286Z,57.92
2017-07-30T06:57:56.191Z,57.89
2017-07-30T06:58:37.104Z,57.79
2017-07-30T06:59:18.027Z,58.12
2017-07-30T06:59:58.944Z,56.87
2017-07-30T07:00:39.841Z,56.61
2017-07-30T07:01:20.718Z,55.54
2017-07-30T07:02:01.589Z,55.18
2017-07-30T07:02:42.495Z,55
2017-07-30T07:03:23.393Z,54.03
2017-07-30T07:04:04.293Z,54.25
2017-07-30T07:04:45.198Z,52.59
2017-07-30T07:05:26.071Z,52.42
2017-07-30T07:06:06.972Z,52.25
2017-07-30T07:06:47.867Z,51.39
2017-07-30T07:07:28.782Z,50.83
2017-07-30T07:08:09.683Z,49.36
2017-07-30T07:08:50.584Z,50.15
2017-07-30T07:09:31.487Z,49.46
2017-07-30T07:10:12.377Z,50.02
2017-07-30T07:10:53.288Z,49.65
2017-07-30T07:11:34.190Z,49.26
2017-07-30T07:12:15.098Z,49.26
2017-07-30T07:12:55.993Z,48.38
2017-07-30T07:13:36.869Z,48.28
2017-07-30T07:14:17.768Z,49.63
2017-07-30T07:14:58.659Z,49.63
2017-07-30T07:15:39.554Z,49.65
2017-07-30T07:16:20.494Z,49.07
2017-07-30T07:17:01.387Z,48.7
2017-07-30T07:17:42.291Z,49.09
2017-07-30T07:18:23.233Z,47.91
2017-07-30T07:19:04.121Z,48.68
2017-07-30T07:19:45.016Z,48.58
2017-07-30T07:20:25.934Z,48.72
2017-07-30T07:21:06.825Z,48.94
2017-07-30T07:21:47.721Z,49.43
2017-07-30T07:22:28.633Z,50.78
2017-07-30T07:23:09.545Z,50.49
2017-07-30T07:23:50.441Z,49.31
2017-07-30T07:24:31.336Z,49.9
2017-07-30T07:25:12.246Z,50.49
2017-07-30T07:25:53.140Z,50.68
2017-07-30T07:26:34.040Z,50.39
2017-07-30T07:27:14.928Z,49.53
2017-07-30T07:27:55.825Z,49.9
2017-07-30T07:28:36.726Z,50.51
2017-07-30T07:29:17.629Z,50.98
2017-07-30T07:29:58.512Z,49.38
2017-07-30T07:30:39.408Z,49.85
2017-07-30T07:31:20.309Z,50.07
2017-07-30T07:32:01.210Z,50.37
2017-07-30T07:32:42.104Z,50.56
2017-07-30T07:33:22.988Z,50.66
2017-07-30T07:34:03.880Z,50.46
2017-07-30T07:34:44.791Z,49.6
2017-07-30T07:35:25.705Z,49.87
2017-07-30T07:36:06.583Z,49.8
2017-07-30T07:36:47.467Z,50.12
2017-07-30T07:37:28.383Z,49.36
2017-07-30T07:38:09.263Z,48.48
2017-07-30T07:38:50.166Z,47.81
2017-07-30T07:39:31.073Z,48.11
2017-07-30T07:40:11.972Z,48.28
2017-07-30T07:40:52.869Z,47.89
2017-07-30T07:41:33.775Z,48.75
2017-07-30T07:42:14.685Z,49.31
2017-07-30T07:42:55.577Z,49.31
2017-07-30T07:43:36.474Z,49.29
2017-07-30T07:44:17.374Z,49.41
2017-07-30T07:44:58.298Z,49.7
2017-07-30T07:45:39.193Z,49.31
2017-07-30T07:46:20.098Z,49.31
2017-07-30T07:47:01.005Z,49.41
2017-07-30T07:47:41.906Z,49.21
2017-07-30T07:48:22.826Z,48.75
2017-07-30T07:49:03.708Z,49.11
2017-07-30T07:49:44.628Z,49.31
2017-07-30T07:50:25.523Z,49.21
2017-07-30T07:51:06.446Z,49.43
2017-07-30T07:51:47.359Z,50.39
2017-07-30T07:52:28.251Z,49.31
2017-07-30T07:53:09.147Z,49.63
2017-07-30T07:53:50.049Z,49.04
2017-07-30T07:54:30.947Z,48.82
2017-07-30T07:55:11.838Z,49.41
2017-07-30T07:55:52.739Z,49.38
2017-07-30T07:56:33.650Z,49.7
2017-07-30T07:57:14.537Z,49.43
2017-07-30T07:57:55.438Z,49.31
2017-07-30T07:58:36.338Z,49.8
2017-07-30T07:59:17.256Z,49.8
2017-07-30T08:01:10.939Z,49.68
2017-07-30T08:01:51.839Z,49.87
2017-07-30T08:02:32.739Z,49.77
2017-07-30T08:03:13.637Z,50.68
2017-07-30T08:03:54.563Z,49.73
2017-07-30T08:04:35.449Z,50.02
2017-07-30T08:05:16.352Z,48.97
2017-07-30T08:05:57.246Z,48.8
2017-07-30T08:06:38.137Z,49.19
2017-07-30T08:07:19.056Z,47.64
2017-07-30T08:07:59.955Z,47.74
2017-07-30T08:08:40.869Z,48.09
2017-07-30T08:09:21.770Z,48.19
2017-07-30T08:10:02.700Z,48.75
2017-07-30T08:10:43.588Z,49.11
2017-07-30T08:11:24.487Z,49.7
2017-07-30T08:12:05.395Z,49.51
2017-07-30T08:12:46.292Z,49.87
2017-07-30T08:13:27.197Z,49.87
2017-07-30T08:14:08.084Z,49.58
2017-07-30T08:14:49.007Z,49.77
2017-07-30T08:15:29.912Z,50.37
2017-07-30T08:16:10.858Z,49.02
2017-07-30T08:16:51.784Z,49.19
2017-07-30T08:17:32.758Z,48.9
2017-07-30T08:18:13.670Z,49.97
2017-07-30T08:18:54.632Z,49.97
2017-07-30T08:19:35.534Z,49.6
2017-07-30T08:20:16.445Z,49.04
2017-07-30T08:20:57.346Z,47.77
2017-07-30T08:21:38.261Z,48.46
2017-07-30T08:22:19.170Z,48.38
2017-07-30T08:23:00.065Z,47.2
2017-07-30T08:23:40.965Z,47.23
2017-07-30T08:25:34.681Z,47.77
2017-07-30T08:26:15.608Z,47.99
2017-07-30T08:26:56.497Z,48.92
2017-07-30T08:27:37.402Z,48.38
2017-07-30T08:28:18.320Z,48.28
2017-07-30T08:28:59.225Z,48.09
2017-07-30T08:29:40.143Z,46.74
2017-07-30T08:30:21.043Z,47.13
2017-07-30T08:31:01.964Z,47.45
2017-07-30T08:31:42.886Z,45.51
2017-07-30T08:32:23.812Z,45.7
2017-07-30T08:33:04.734Z,45.83
2017-07-30T08:33:45.638Z,45.24
2017-07-30T08:34:26.551Z,44.47
2017-07-30T08:35:07.475Z,43.88
2017-07-30T08:35:48.381Z,44.69
2017-07-30T08:36:29.288Z,43.22
2017-07-30T08:37:10.229Z,44.47
2017-07-30T08:37:51.134Z,44.67
2017-07-30T08:38:32.084Z,43.61
2017-07-30T08:39:13.002Z,43.33
2017-07-30T08:39:53.921Z,43.8
2017-07-30T08:40:34.834Z,42.85
2017-07-30T08:41:15.730Z,43.22
2017-07-30T08:41:56.857Z,43.12
2017-07-30T08:43:25.007Z,44.37
2017-07-30T08:44:05.916Z,43.39
2017-07-30T08:44:46.827Z,44.65
2017-07-30T08:45:27.742Z,44.13
2017-07-30T08:46:08.657Z,45.21
2017-07-30T08:46:49.569Z,45.21
2017-07-30T08:47:30.477Z,45.43
2017-07-30T08:48:11.382Z,44.65
2017-07-30T08:48:52.291Z,43.88
2017-07-30T08:49:33.197Z,44.18
2017-07-30T08:50:14.116Z,43.9
2017-07-30T08:50:55.048Z,43.71
2017-07-30T08:51:35.937Z,43.61
2017-07-30T08:52:16.855Z,42.94
2017-07-30T08:52:57.770Z,42.75
2017-07-30T08:53:38.712Z,42.38
2017-07-30T08:54:19.628Z,41.71
2017-07-30T08:55:00.529Z,41.33
2017-07-30T08:55:41.449Z,40.48
2017-07-30T08:56:22.360Z,40.56